createdAt,value
2023-02-04T00:01:41.920Z,9.30
2023-02-04T00:04:09.145Z,9.30
2023-02-04T00:06:36.527Z,9.40
2023-02-04T00:09:03.805Z,9.40
2023-02-04T00:11:31.178Z,9.30
2023-02-04T00:13:58.505Z,9.30
2023-02-04T00:16:25.861Z,9.30
2023-02-04T00:18:53.229Z,9.30
2023-02-04T00:21:21.685Z,9.20
2023-02-04T00:23:51.304Z,9.20
2023-02-04T00:26:18.623Z,9.20
2023-02-04T00:28:45.961Z,9.20
2023-02-04T00:31:13.357Z,9.20
2023-02-04T00:33:43.008Z,9.20
2023-02-04T00:36:10.697Z,9.40
2023-02-04T00:38:38.054Z,9.40
2023-02-04T00:41:07.273Z,9.50
2023-02-04T00:43:34.651Z,9.50
2023-02-04T00:46:01.951Z,9.60
2023-02-04T00:48:29.421Z,9.60
2023-02-04T00:50:56.817Z,9.70
2023-02-04T00:53:24.095Z,9.70
2023-02-04T00:55:51.403Z,9.70
2023-02-04T00:58:18.640Z,9.60
2023-02-04T01:00:46.097Z,9.50
2023-02-04T01:03:13.430Z,9.50
2023-02-04T01:05:41.141Z,9.40
2023-02-04T01:08:08.364Z,9.30
2023-02-04T01:10:35.785Z,9.30
2023-02-04T01:13:03.379Z,9.30
2023-02-04T01:15:30.664Z,9.20
2023-02-04T01:17:57.905Z,9.20
2023-02-04T01:20:25.173Z,9.20
2023-02-04T01:22:52.645Z,9.20
2023-02-04T01:25:20.266Z,9.20
2023-02-04T01:27:47.664Z,9.20
2023-02-04T01:30:15.811Z,9.20
2023-02-04T01:32:43.102Z,9.20
2023-02-04T01:35:10.444Z,9.20
2023-02-04T01:37:37.681Z,9.10
2023-02-04T01:40:05.501Z,9.10
2023-02-04T01:42:35.191Z,9.00
2023-02-04T01:45:06.437Z,9.00
2023-02-04T01:47:35.317Z,8.90
2023-02-04T01:50:02.856Z,8.90
2023-02-04T01:52:35.691Z,8.80
2023-02-04T01:55:03.219Z,8.80
2023-02-04T01:57:30.719Z,8.80
2023-02-04T01:59:58.121Z,8.80
2023-02-04T02:02:48.923Z,8.80
2023-02-04T02:05:21.336Z,8.80
2023-02-04T02:07:50.216Z,8.80
2023-02-04T02:10:18.845Z,8.80
2023-02-04T02:12:46.741Z,8.80
2023-02-04T02:15:16.512Z,8.80
2023-02-04T02:17:44.618Z,8.70
2023-02-04T02:20:16.601Z,8.70
2023-02-04T02:23:02.768Z,8.70
2023-02-04T02:25:31.629Z,8.70
2023-02-04T02:28:00.857Z,8.70
2023-02-04T02:30:30.025Z,8.70
2023-02-04T02:32:58.310Z,8.60
2023-02-04T02:35:25.697Z,8.60
2023-02-04T02:37:53.225Z,8.60
2023-02-04T02:40:20.636Z,8.70
2023-02-04T02:42:51.825Z,8.80
2023-02-04T02:45:29.857Z,8.90
2023-02-04T02:47:59.765Z,9.10
2023-02-04T02:50:31.587Z,9.20
2023-02-04T02:53:00.796Z,9.20
2023-02-04T02:55:28.972Z,9.20
2023-02-04T02:57:58.102Z,9.20
2023-02-04T03:00:29.300Z,9.20
2023-02-04T03:03:17.932Z,9.20
2023-02-04T03:05:48.849Z,9.10
2023-02-04T03:08:17.391Z,9.10
2023-02-04T03:10:45.852Z,9.00
2023-02-04T03:13:14.892Z,8.90
2023-02-04T03:15:44.643Z,8.90
2023-02-04T03:18:14.039Z,8.80
2023-02-04T03:20:42.445Z,9.00
2023-02-04T03:23:11.016Z,9.10
2023-02-04T03:25:40.242Z,9.10
2023-02-04T03:28:07.766Z,9.00
2023-02-04T03:30:37.059Z,8.90
2023-02-04T03:33:04.490Z,8.80
2023-02-04T03:35:31.869Z,8.70
2023-02-04T03:37:59.262Z,8.60
2023-02-04T03:40:27.902Z,8.50
2023-02-04T03:42:55.452Z,8.40
2023-02-04T03:45:22.709Z,8.30
2023-02-04T03:47:50.076Z,8.30
2023-02-04T03:50:17.468Z,8.40
2023-02-04T03:52:45.297Z,8.40
2023-02-04T03:55:12.503Z,8.40
2023-02-04T03:57:39.868Z,8.40
2023-02-04T04:00:07.660Z,8.40
2023-02-04T04:02:39.469Z,8.40
2023-02-04T04:05:08.389Z,8.50
2023-02-04T04:07:35.646Z,8.50
2023-02-04T04:10:03.428Z,8.50
2023-02-04T04:12:30.716Z,8.40
2023-02-04T04:14:58.005Z,8.50
2023-02-04T04:17:25.361Z,8.50
2023-02-04T04:19:52.752Z,8.50
2023-02-04T04:22:20.136Z,8.30
2023-02-04T04:24:47.526Z,8.30
2023-02-04T04:27:14.791Z,8.20
2023-02-04T04:29:42.137Z,8.10
2023-02-04T04:32:10.407Z,8.00
2023-02-04T04:34:37.905Z,8.00
2023-02-04T04:37:05.128Z,8.00
2023-02-04T04:39:32.593Z,8.00
2023-02-04T04:42:01.217Z,8.00
2023-02-04T04:44:28.456Z,8.00
2023-02-04T04:46:55.743Z,8.00
2023-02-04T04:49:23.166Z,7.90
2023-02-04T04:51:50.421Z,7.90
2023-02-04T04:54:17.804Z,7.90
2023-02-04T04:56:45.039Z,7.90
2023-02-04T04:59:12.324Z,7.90
2023-02-04T05:01:39.748Z,7.90
2023-02-04T05:04:07.756Z,7.90
2023-02-04T05:06:35.079Z,7.90
2023-02-04T05:09:02.333Z,7.90
2023-02-04T05:11:29.644Z,7.90
2023-02-04T05:13:57.284Z,7.90
2023-02-04T05:16:24.675Z,8.00
2023-02-04T05:18:54.093Z,8.00
2023-02-04T05:21:21.453Z,8.00
2023-02-04T05:23:48.737Z,8.00
2023-02-04T05:26:29.125Z,8.00
2023-02-04T05:28:57.553Z,7.90
2023-02-04T05:31:24.921Z,7.90
2023-02-04T05:33:53.313Z,7.90
2023-02-04T05:36:21.167Z,7.90
2023-02-04T05:38:48.478Z,7.80
2023-02-04T05:41:16.088Z,7.80
2023-02-04T05:43:43.437Z,7.90
2023-02-04T05:46:10.801Z,7.90
2023-02-04T05:48:40.202Z,7.80
2023-02-04T05:51:07.612Z,7.80
2023-02-04T05:53:35.027Z,7.80
2023-02-04T05:56:02.283Z,7.90
2023-02-04T05:58:33.655Z,7.90
2023-02-04T06:01:01.785Z,7.90
2023-02-04T06:03:30.763Z,8.00
2023-02-04T06:05:58.380Z,8.20
2023-02-04T06:08:25.646Z,8.20
2023-02-04T06:10:52.992Z,8.20
2023-02-04T06:13:20.952Z,8.10
2023-02-04T06:15:48.313Z,8.10
2023-02-04T06:18:15.624Z,8.10
2023-02-04T06:20:42.972Z,8.20
2023-02-04T06:23:10.161Z,8.20
2023-02-04T06:25:38.231Z,8.20
2023-02-04T06:28:05.509Z,8.30
2023-02-04T06:30:33.390Z,8.30
2023-02-04T06:33:00.991Z,8.40
2023-02-04T06:35:28.231Z,8.50
2023-02-04T06:37:57.054Z,8.60
2023-02-04T06:40:24.389Z,8.90
2023-02-04T06:42:51.867Z,9.00
2023-02-04T06:45:19.181Z,9.10
2023-02-04T06:47:46.630Z,9.20
2023-02-04T06:50:18.810Z,9.20
2023-02-04T06:52:47.146Z,9.30
2023-02-04T06:55:15.334Z,9.30
2023-02-04T06:57:43.136Z,9.30
2023-02-04T07:00:12.665Z,9.40
2023-02-04T07:02:41.112Z,9.40
2023-02-04T07:05:09.057Z,9.40
2023-02-04T07:07:36.550Z,9.50
2023-02-04T07:10:04.498Z,9.60
2023-02-04T07:12:32.143Z,9.70
2023-02-04T07:14:59.482Z,9.80
2023-02-04T07:17:26.883Z,9.90
2023-02-04T07:19:54.199Z,10.00
2023-02-04T07:22:21.595Z,10.10
2023-02-04T07:24:48.948Z,10.20
2023-02-04T07:27:16.337Z,10.30
2023-02-04T07:29:43.729Z,10.40
2023-02-04T07:32:11.100Z,10.60
2023-02-04T07:34:38.509Z,10.70
2023-02-04T07:37:06.069Z,10.80
2023-02-04T07:39:33.391Z,11.00
2023-02-04T07:42:00.653Z,11.10
2023-02-04T07:44:34.688Z,11.20
2023-02-04T07:47:02.117Z,11.40
2023-02-04T07:49:29.400Z,11.50
2023-02-04T07:51:58.103Z,11.70
2023-02-04T07:54:25.474Z,11.80
2023-02-04T07:56:52.824Z,12.00
2023-02-04T07:59:21.506Z,12.10
2023-02-04T08:01:50.080Z,12.30
2023-02-04T08:04:17.444Z,12.50
2023-02-04T08:06:47.616Z,12.60
2023-02-04T08:09:15.216Z,12.80
2023-02-04T08:11:42.529Z,12.80
2023-02-04T08:14:09.793Z,13.00
2023-02-04T08:16:37.122Z,13.10
2023-02-04T08:19:04.819Z,13.30
2023-02-04T08:21:32.549Z,13.40
2023-02-04T08:23:59.882Z,13.50
2023-02-04T08:26:27.297Z,13.60
2023-02-04T08:28:56.589Z,13.60
2023-02-04T08:31:23.959Z,13.70
2023-02-04T08:33:51.451Z,13.80
2023-02-04T08:36:18.709Z,13.90
2023-02-04T08:38:46.057Z,14.00
2023-02-04T08:41:13.594Z,14.10
2023-02-04T08:43:41.090Z,14.30
2023-02-04T08:46:08.582Z,14.40
2023-02-04T08:48:35.912Z,14.40
2023-02-04T08:51:03.509Z,14.40
2023-02-04T08:53:30.875Z,14.50
2023-02-04T08:55:58.213Z,14.60
2023-02-04T08:58:25.525Z,14.70
2023-02-04T09:00:52.970Z,14.80
2023-02-04T09:03:20.264Z,14.90
2023-02-04T09:05:47.869Z,14.90
2023-02-04T09:08:16.075Z,14.90
2023-02-04T09:10:43.391Z,15.00
2023-02-04T09:13:12.004Z,15.00
2023-02-04T09:15:39.347Z,15.00
2023-02-04T09:18:14.794Z,15.10
2023-02-04T09:20:42.530Z,15.20
2023-02-04T09:23:12.268Z,15.30
2023-02-04T09:25:40.572Z,15.30
2023-02-04T09:28:12.090Z,15.30
2023-02-04T09:30:41.074Z,15.30
2023-02-04T09:33:09.984Z,15.50
2023-02-04T09:35:37.984Z,15.70
2023-02-04T09:38:05.741Z,15.80
2023-02-04T09:40:36.821Z,15.80
2023-02-04T09:43:07.139Z,15.90
2023-02-04T09:45:36.411Z,16.10
2023-02-04T09:48:06.607Z,16.10
2023-02-04T09:50:34.837Z,16.10
2023-02-04T09:53:04.969Z,16.20
2023-02-04T09:55:39.984Z,16.20
2023-02-04T09:58:19.022Z,16.10
2023-02-04T10:00:48.766Z,16.10
2023-02-04T10:03:18.427Z,16.10
2023-02-04T10:05:46.955Z,16.20
2023-02-04T10:08:27.047Z,16.20
2023-02-04T10:10:56.778Z,16.20
2023-02-04T10:13:36.518Z,15.90
2023-02-04T10:16:17.277Z,15.90
2023-02-04T10:18:45.187Z,15.90
2023-02-04T10:21:12.464Z,16.00
2023-02-04T10:23:40.258Z,16.00
2023-02-04T10:26:10.481Z,16.00
2023-02-04T10:28:40.373Z,16.00
2023-02-04T10:31:34.107Z,16.00
2023-02-04T10:34:19.123Z,16.00
2023-02-04T10:36:57.994Z,15.80
2023-02-04T10:39:27.864Z,15.70
2023-02-04T10:42:00.470Z,15.80
2023-02-04T10:44:36.196Z,15.90
2023-02-04T10:47:07.039Z,16.00
2023-02-04T10:49:34.610Z,16.00
2023-02-04T10:52:03.602Z,15.80
2023-02-04T10:54:38.585Z,15.60
2023-02-04T10:57:09.926Z,15.70
2023-02-04T10:59:37.707Z,15.90
2023-02-04T11:02:27.422Z,16.00
2023-02-04T11:04:54.716Z,16.10
2023-02-04T11:07:26.644Z,16.10
2023-02-04T11:09:57.771Z,16.20
2023-02-04T11:12:54.552Z,16.30
2023-02-04T11:16:24.630Z,16.40
2023-02-04T11:18:57.443Z,16.60
2023-02-04T11:21:32.980Z,17.10
2023-02-04T11:24:12.545Z,17.10
2023-02-04T11:26:49.210Z,17.10
2023-02-04T11:29:17.484Z,17.50
2023-02-04T11:31:50.708Z,18.00
2023-02-04T11:34:21.782Z,18.00
2023-02-04T11:36:59.242Z,18.40
2023-02-04T11:39:39.676Z,18.00
2023-02-04T11:42:39.542Z,18.30
2023-02-04T11:45:30.229Z,18.70
2023-02-04T11:47:59.957Z,18.80
2023-02-04T11:50:33.229Z,19.00
2023-02-04T11:53:02.435Z,18.60
2023-02-04T11:55:31.427Z,18.80
2023-02-04T11:57:58.955Z,18.50
2023-02-04T12:00:32.247Z,18.60
2023-02-04T12:03:02.954Z,19.10
2023-02-04T12:05:41.646Z,19.40
2023-02-04T12:08:22.500Z,19.40
2023-02-04T12:10:51.903Z,19.20
2023-02-04T12:13:24.365Z,19.50
2023-02-04T12:16:06.525Z,19.50
2023-02-04T12:18:35.335Z,19.60
2023-02-04T12:21:04.564Z,19.50
2023-02-04T12:23:32.837Z,19.30
2023-02-04T12:26:00.375Z,19.10
2023-02-04T12:28:31.222Z,19.20
2023-02-04T12:30:58.684Z,19.00
2023-02-04T12:33:26.293Z,19.20
2023-02-04T12:35:53.722Z,19.60
2023-02-04T12:38:21.981Z,19.60
2023-02-04T12:40:49.244Z,20.00
2023-02-04T12:43:16.541Z,20.40
2023-02-04T12:45:46.538Z,20.70
2023-02-04T12:48:14.269Z,20.90
2023-02-04T12:50:42.077Z,21.60
2023-02-04T12:53:09.448Z,21.40
2023-02-04T12:55:37.005Z,21.50
2023-02-04T12:58:04.635Z,20.90
2023-02-04T13:00:32.042Z,20.50
2023-02-04T13:02:59.366Z,20.40
2023-02-04T13:05:27.798Z,20.90
2023-02-04T13:07:55.066Z,20.70
2023-02-04T13:10:24.157Z,20.80
2023-02-04T13:12:51.825Z,20.50
2023-02-04T13:15:19.444Z,21.00
2023-02-04T13:17:47.025Z,21.10
2023-02-04T13:20:14.491Z,20.80
2023-02-04T13:22:43.923Z,20.40
2023-02-04T13:25:11.815Z,19.70
2023-02-04T13:27:39.874Z,18.90
2023-02-04T13:30:09.066Z,18.10
2023-02-04T13:32:36.360Z,17.70
2023-02-04T13:35:03.806Z,17.10
2023-02-04T13:37:31.338Z,17.10
2023-02-04T13:39:58.654Z,17.00
2023-02-04T13:42:26.014Z,16.70
2023-02-04T13:44:55.247Z,16.70
2023-02-04T13:47:22.854Z,16.70
2023-02-04T13:49:50.118Z,16.80
2023-02-04T13:52:18.651Z,16.70
2023-02-04T13:54:46.304Z,16.60
2023-02-04T13:57:13.749Z,16.60
2023-02-04T13:59:41.070Z,16.50
2023-02-04T14:02:09.303Z,16.40
2023-02-04T14:04:36.997Z,16.30
2023-02-04T14:07:04.413Z,16.30
2023-02-04T14:09:31.679Z,16.30
2023-02-04T14:11:59.039Z,16.40
2023-02-04T14:14:26.338Z,16.40
2023-02-04T14:16:53.733Z,16.30
2023-02-04T14:19:21.254Z,16.20
2023-02-04T14:21:50.414Z,16.00
2023-02-04T14:24:17.933Z,16.00
2023-02-04T14:26:45.676Z,15.90
2023-02-04T14:29:13.027Z,15.90
2023-02-04T14:31:40.379Z,15.90
2023-02-04T14:34:07.798Z,15.90
2023-02-04T14:36:35.802Z,15.90
2023-02-04T14:39:03.476Z,15.80
2023-02-04T14:41:31.503Z,15.80
2023-02-04T14:43:58.883Z,15.70
2023-02-04T14:46:26.173Z,15.60
2023-02-04T14:48:54.751Z,15.60
2023-02-04T14:51:22.127Z,15.60
2023-02-04T14:53:49.552Z,15.60
2023-02-04T14:56:17.204Z,15.60
2023-02-04T14:58:44.508Z,15.60
2023-02-04T15:01:11.966Z,15.50
2023-02-04T15:03:39.377Z,15.50
2023-02-04T15:06:07.147Z,15.50
2023-02-04T15:08:34.663Z,15.40
2023-02-04T15:11:02.219Z,15.30
2023-02-04T15:13:29.608Z,15.30
2023-02-04T15:15:56.964Z,15.30
2023-02-04T15:18:24.535Z,15.20
2023-02-04T15:20:51.887Z,15.20
2023-02-04T15:23:19.646Z,15.20
2023-02-04T15:25:47.452Z,15.10
2023-02-04T15:28:14.853Z,15.10
2023-02-04T15:30:42.519Z,15.10
2023-02-04T15:33:11.568Z,15.10
2023-02-04T15:35:39.864Z,15.10
2023-02-04T15:38:07.193Z,15.00
2023-02-04T15:40:34.806Z,14.90
2023-02-04T15:43:02.348Z,14.90
2023-02-04T15:45:29.766Z,14.90
2023-02-04T15:47:57.085Z,14.90
2023-02-04T15:50:24.466Z,14.90
2023-02-04T15:52:51.891Z,14.90
2023-02-04T15:55:19.220Z,14.90
2023-02-04T15:57:46.572Z,14.80
2023-02-04T16:00:14.724Z,14.70
2023-02-04T16:02:42.054Z,14.70
2023-02-04T16:05:10.315Z,14.60
2023-02-04T16:07:37.778Z,14.60
2023-02-04T16:10:05.463Z,14.60
2023-02-04T16:12:32.726Z,14.50
2023-02-04T16:15:00.147Z,14.50
2023-02-04T16:17:27.510Z,14.50
2023-02-04T16:19:54.786Z,14.50
2023-02-04T16:22:22.072Z,14.50
2023-02-04T16:24:49.935Z,14.40
2023-02-04T16:27:17.729Z,14.40
2023-02-04T16:29:45.021Z,14.40
2023-02-04T16:32:12.462Z,14.40
2023-02-04T16:34:39.853Z,14.30
2023-02-04T16:37:07.253Z,14.30
2023-02-04T16:39:34.906Z,14.20
2023-02-04T16:42:02.442Z,14.10
2023-02-04T16:44:30.038Z,14.00
2023-02-04T16:46:57.303Z,14.00
2023-02-04T16:49:24.621Z,13.90
2023-02-04T16:51:51.934Z,13.80
2023-02-04T16:54:19.302Z,13.70
2023-02-04T16:56:46.668Z,13.70
2023-02-04T16:59:13.953Z,13.70
2023-02-04T17:01:41.373Z,13.60
2023-02-04T17:04:08.737Z,13.60
2023-02-04T17:06:36.128Z,13.50
2023-02-04T17:09:03.531Z,13.50
2023-02-04T17:11:31.836Z,13.40
2023-02-04T17:14:00.322Z,13.30
2023-02-04T17:16:28.285Z,13.30
2023-02-04T17:18:55.884Z,13.30
2023-02-04T17:21:24.888Z,13.20
2023-02-04T17:23:52.633Z,13.20
2023-02-04T17:26:20.217Z,13.20
2023-02-04T17:28:47.476Z,13.20
2023-02-04T17:31:14.933Z,13.10
2023-02-04T17:33:42.865Z,13.10
2023-02-04T17:36:11.224Z,13.10
2023-02-04T17:38:38.560Z,13.10
2023-02-04T17:41:05.953Z,13.00
2023-02-04T17:43:34.544Z,13.00
2023-02-04T17:46:01.845Z,13.00
2023-02-04T17:48:29.387Z,12.90
2023-02-04T17:50:58.310Z,12.90
2023-02-04T17:53:26.091Z,12.90
2023-02-04T17:55:53.441Z,12.90
2023-02-04T17:58:24.563Z,12.90
2023-02-04T18:00:53.714Z,12.80
2023-02-04T18:03:23.810Z,12.80
2023-02-04T18:05:53.865Z,12.80
2023-02-04T18:08:24.672Z,12.80
2023-02-04T18:10:54.282Z,12.70
2023-02-04T18:13:34.149Z,12.70
2023-02-04T18:16:10.354Z,12.80
2023-02-04T18:18:40.891Z,12.80
2023-02-04T18:21:26.531Z,12.90
2023-02-04T18:24:01.921Z,12.90
2023-02-04T18:26:29.396Z,12.90
2023-02-04T18:28:57.318Z,12.90
2023-02-04T18:31:49.810Z,12.90
2023-02-04T18:34:23.987Z,12.90
2023-02-04T18:36:51.762Z,12.80
2023-02-04T18:39:23.846Z,12.80
2023-02-04T18:41:52.400Z,12.70
2023-02-04T18:44:32.672Z,12.80
2023-02-04T18:47:09.547Z,12.80
2023-02-04T18:49:39.902Z,12.80
2023-02-04T18:52:19.905Z,12.70
2023-02-04T18:54:58.382Z,12.70
2023-02-04T18:57:31.811Z,12.70
2023-02-04T19:00:14.672Z,12.70
2023-02-04T19:02:54.143Z,12.60
2023-02-04T19:05:30.465Z,12.50
2023-02-04T19:08:17.018Z,12.50
2023-02-04T19:10:45.010Z,12.50
2023-02-04T19:13:20.395Z,12.50
2023-02-04T19:16:04.690Z,12.50
2023-02-04T19:19:33.617Z,12.40
2023-02-04T19:21:55.412Z,12.30
2023-02-04T19:24:27.022Z,12.30
2023-02-04T19:27:20.797Z,12.20
2023-02-04T19:29:49.244Z,12.10
2023-02-04T19:32:32.600Z,12.10
2023-02-04T19:35:12.863Z,12.00
2023-02-04T19:37:46.263Z,12.00
2023-02-04T19:40:38.550Z,11.90
2023-02-04T19:43:36.626Z,11.90
2023-02-04T19:46:21.489Z,11.90
2023-02-04T19:48:53.686Z,11.90
2023-02-04T19:51:27.298Z,11.90
2023-02-04T19:54:18.108Z,12.00
2023-02-04T19:56:45.930Z,12.10
2023-02-04T19:59:30.215Z,12.20
2023-02-04T20:02:06.416Z,12.30
2023-02-04T20:04:45.482Z,12.30
2023-02-04T20:07:38.008Z,12.20
2023-02-04T20:10:14.943Z,12.20
2023-02-04T20:12:43.123Z,12.10
2023-02-04T20:15:26.221Z,12.00
2023-02-04T20:17:55.245Z,12.00
2023-02-04T20:20:40.921Z,11.90
2023-02-04T20:23:33.814Z,11.90
2023-02-04T20:26:02.332Z,11.80
2023-02-04T20:28:42.285Z,11.80
2023-02-04T20:31:31.709Z,12.00
2023-02-04T20:34:00.379Z,12.10
2023-02-04T20:36:44.693Z,12.30
2023-02-04T20:39:40.773Z,12.30
2023-02-04T20:42:29.488Z,12.40
2023-02-04T20:45:12.038Z,12.40
2023-02-04T20:47:51.730Z,12.30
2023-02-04T20:50:44.466Z,12.20
2023-02-04T20:53:21.021Z,12.10
2023-02-04T20:55:55.480Z,12.00
2023-02-04T20:58:30.076Z,11.90
2023-02-04T21:00:59.977Z,11.90
2023-02-04T21:03:39.639Z,11.80
2023-02-04T21:06:36.772Z,11.70
2023-02-04T21:09:10.798Z,11.60
2023-02-04T21:11:38.117Z,11.60
2023-02-04T21:14:07.568Z,11.50
2023-02-04T21:16:36.558Z,11.50
2023-02-04T21:19:10.474Z,11.40
2023-02-04T21:21:40.867Z,11.40
2023-02-04T21:24:08.674Z,11.30
2023-02-04T21:27:01.117Z,11.20
2023-02-04T21:30:17.321Z,11.20
2023-02-04T21:36:53.955Z,11.30
2023-02-04T21:39:21.891Z,11.30
2023-02-04T21:42:09.308Z,11.30
2023-02-04T21:44:38.302Z,11.20
2023-02-04T21:47:06.003Z,11.30
2023-02-04T21:49:34.313Z,11.20
2023-02-04T21:52:01.546Z,11.20
2023-02-04T21:54:29.225Z,11.10
2023-02-04T21:56:56.949Z,11.10
2023-02-04T21:59:27.059Z,11.00
2023-02-04T22:01:57.117Z,11.10
2023-02-04T22:04:28.393Z,11.20
2023-02-04T22:06:56.262Z,11.50
2023-02-04T22:09:23.826Z,11.50
2023-02-04T22:11:57.265Z,11.50
2023-02-04T22:17:47.460Z,11.80
2023-02-04T22:20:23.240Z,12.00
2023-02-04T22:26:31.893Z,11.90
2023-02-04T22:29:02.470Z,11.70
2023-02-04T22:31:29.884Z,11.40
2023-02-04T22:34:06.738Z,11.20
2023-02-04T22:36:39.552Z,11.10
2023-02-04T22:39:07.986Z,11.00
2023-02-04T22:41:36.552Z,11.00
2023-02-04T22:44:04.307Z,11.00
2023-02-04T22:46:31.813Z,11.00
2023-02-04T22:48:59.127Z,11.00
2023-02-04T22:51:26.726Z,11.00
2023-02-04T22:53:59.103Z,11.00
2023-02-04T22:56:26.484Z,11.00
2023-02-04T22:58:54.147Z,11.00
2023-02-04T23:01:21.718Z,11.00
2023-02-04T23:03:49.906Z,11.00
2023-02-04T23:06:18.961Z,10.90
2023-02-04T23:08:47.113Z,10.90
2023-02-04T23:11:14.960Z,10.80
2023-02-04T23:13:42.403Z,10.80
2023-02-04T23:16:09.850Z,10.70
2023-02-04T23:18:37.279Z,10.60
2023-02-04T23:21:05.604Z,10.60
2023-02-04T23:23:34.749Z,10.60
2023-02-04T23:26:03.598Z,10.50
2023-02-04T23:28:32.244Z,10.50
2023-02-04T23:30:59.991Z,10.40
2023-02-04T23:33:27.502Z,10.30
2023-02-04T23:35:58.020Z,10.30
2023-02-04T23:38:25.589Z,10.20
2023-02-04T23:40:52.944Z,10.20
2023-02-04T23:43:20.344Z,10.20
2023-02-04T23:45:47.870Z,10.30
2023-02-04T23:48:15.311Z,10.30
2023-02-04T23:50:42.601Z,10.30
2023-02-04T23:53:10.022Z,10.40
2023-02-04T23:55:37.342Z,10.40
2023-02-04T23:58:05.989Z,10.40
